Time;durP1;ratioP1;P1;durP2;ratioP2;P2;SDS_P1;SDS_P2;PMS_P1;PMS_P2;Temp;Humidity;BMP_temperature;BMP_pressure;BME280_temperature;BME280_humidity;BME280_pressure;Samples;Min_cycle;Max_cycle;Signal;HPM_P1;HPM_P2
2021/12/09 00:02:23;;;;;;;10.73;6.18;;;;;;;-6.73;73.83;100271.88;4953881;29;20383;-56
2021/12/09 00:05:14;;;;;;;9.20;6.10;;;;;;;-6.57;74.77;100269.44;4953473;29;20032;-56
2021/12/09 00:08:00;;;;;;;11.27;7.05;;;;;;;-6.69;74.02;100258.69;4956690;29;20031;-57
2021/12/09 00:10:46;;;;;;;12.38;7.10;;;;;;;-6.66;73.10;100254.69;4961624;29;20027;-56
2021/12/09 00:13:32;;;;;;;10.65;6.47;;;;;;;-6.68;73.30;100260.41;4961140;29;20035;-57
2021/12/09 00:16:18;;;;;;;9.00;6.55;;;;;;;-6.60;72.78;100254.16;4962858;28;20043;-57
2021/12/09 00:19:04;;;;;;;10.50;6.93;;;;;;;-6.66;73.23;100256.34;4963414;29;20035;-55
2021/12/09 00:21:50;;;;;;;10.35;5.88;;;;;;;-6.53;73.74;100263.81;4962990;29;20027;-56
2021/12/09 00:24:36;;;;;;;10.38;6.28;;;;;;;-6.55;72.53;100262.84;4959863;28;20022;-57
2021/12/09 00:27:22;;;;;;;10.00;6.80;;;;;;;-6.54;73.64;100249.50;4956560;29;20034;-57
2021/12/09 00:30:10;;;;;;;11.27;6.95;;;;;;;-6.40;73.58;100264.50;4958363;29;20058;-56
2021/12/09 00:32:58;;;;;;;11.18;6.90;;;;;;;-6.38;72.54;100257.88;4960193;29;20071;-56
2021/12/09 00:35:48;;;;;;;9.48;6.50;;;;;;;-6.38;73.75;100253.72;4960789;29;20031;-56
2021/12/09 00:38:37;;;;;;;10.52;6.70;;;;;;;-6.69;72.54;100257.03;4962808;29;20035;-57
2021/12/09 00:41:23;;;;;;;9.05;6.25;;;;;;;-6.56;74.53;100257.75;4961709;29;20349;-56
2021/12/09 00:44:09;;;;;;;10.80;6.45;;;;;;;-6.69;73.79;100249.47;4961631;29;20035;-56
2021/12/09 00:46:55;;;;;;;10.73;6.63;;;;;;;-6.67;73.99;100254.59;4962484;29;20035;-56
2021/12/09 00:49:41;;;;;;;9.40;6.28;;;;;;;-6.70;74.63;100239.31;4962106;29;20123;-56
2021/12/09 00:52:27;;;;;;;9.45;6.28;;;;;;;-6.55;74.72;100249.41;4951462;28;20062;-56
2021/12/09 00:55:14;;;;;;;8.10;5.50;;;;;;;-6.63;73.64;100251.47;4946765;29;20375;-56
2021/12/09 00:58:00;;;;;;;10.45;6.50;;;;;;;-6.72;74.29;100259.38;4944275;29;20027;-56
2021/12/09 01:00:47;;;;;;;9.20;6.30;;;;;;;-6.59;74.86;100249.22;4945883;29;20027;-56
2021/12/09 01:03:36;;;;;;;8.90;6.00;;;;;;;-6.91;72.74;100217.19;4961335;29;20023;-56
2021/12/09 01:06:22;;;;;;;8.43;5.45;;;;;;;-6.83;73.31;100242.78;4962369;29;20071;-56
2021/12/09 01:09:09;;;;;;;9.45;6.18;;;;;;;-6.68;72.74;100258.78;4963282;28;20043;-55
2021/12/09 01:11:55;;;;;;;9.57;5.72;;;;;;;-6.66;72.64;100259.72;4961918;29;20344;-56
2021/12/09 01:14:40;;;;;;;9.10;6.05;;;;;;;-6.69;73.60;100258.69;4962046;29;20038;-57
2021/12/09 01:17:27;;;;;;;9.55;6.22;;;;;;;-6.67;73.52;100269.72;4960196;29;20027;-59
2021/12/09 01:20:15;;;;;;;10.73;6.35;;;;;;;-7.05;73.03;100225.56;4959281;29;20420;-57
2021/12/09 01:23:03;;;;;;;10.38;6.15;;;;;;;-6.74;73.58;100272.66;4961502;28;20324;-56
2021/12/09 01:25:51;;;;;;;10.77;6.03;;;;;;;-6.87;73.15;100266.06;4961555;29;20090;-57
2021/12/09 01:28:52;;;;;;;9.23;6.38;;;;;;;-6.68;72.90;100275.53;4958813;29;20027;-57
2021/12/09 01:31:40;;;;;;;8.75;5.95;;;;;;;-6.78;72.71;100267.47;4961576;29;20094;-58
2021/12/09 01:34:26;;;;;;;10.38;5.90;;;;;;;-6.78;73.07;100276.66;4950801;29;20034;-56
2021/12/09 01:37:12;;;;;;;7.90;5.75;;;;;;;-6.65;73.33;100276.56;4957382;28;20115;-57
2021/12/09 01:39:58;;;;;;;10.82;6.63;;;;;;;-6.61;72.70;100285.19;4961646;29;20023;-56
2021/12/09 01:42:44;;;;;;;9.80;6.38;;;;;;;-6.69;73.25;100276.31;4961539;29;20063;-57
2021/12/09 01:45:30;;;;;;;10.43;5.88;;;;;;;-6.61;72.83;100277.63;4959956;29;20023;-57
2021/12/09 01:48:16;;;;;;;9.10;5.82;;;;;;;-6.56;74.02;100278.75;4960005;29;20232;-57
2021/12/09 01:51:03;;;;;;;10.27;5.57;;;;;;;-6.66;72.77;100289.94;4961128;29;20027;-56
2021/12/09 01:53:50;;;;;;;10.70;6.55;;;;;;;-6.63;72.69;100281.69;4945976;29;20023;-57
2021/12/09 01:56:36;;;;;;;10.65;5.97;;;;;;;-6.70;72.78;100284.66;4959585;29;20041;-57
2021/12/09 01:59:22;;;;;;;9.32;5.97;;;;;;;-6.64;72.62;100282.47;4961781;29;20312;-56
2021/12/09 02:02:07;;;;;;;9.05;5.90;;;;;;;-6.76;72.36;100286.03;4959266;29;20066;-57
2021/12/09 02:04:53;;;;;;;9.10;5.90;;;;;;;-6.64;72.63;100283.34;4960269;29;20172;-56
2021/12/09 02:07:40;;;;;;;9.55;5.80;;;;;;;-6.62;72.36;100280.94;4961392;29;20061;-57
2021/12/09 02:10:27;;;;;;;12.00;6.40;;;;;;;-6.76;73.24;100283.50;4960692;29;20039;-57
2021/12/09 02:13:14;;;;;;;8.38;6.28;;;;;;;-6.57;72.51;100287.06;4959974;29;20119;-57
2021/12/09 02:16:01;;;;;;;9.70;6.32;;;;;;;-6.83;72.46;100270.50;4961563;28;20097;-57
2021/12/09 02:18:48;;;;;;;10.38;6.65;;;;;;;-6.71;71.74;100285.41;4960991;29;20279;-57
2021/12/09 02:21:35;;;;;;;10.32;6.40;;;;;;;-6.78;73.13;100284.22;4943451;29;20050;-57
2021/12/09 02:24:21;;;;;;;11.00;6.57;;;;;;;-6.63;72.65;100290.13;4945928;29;20212;-57
2021/12/09 02:27:07;;;;;;;9.52;6.40;;;;;;;-6.61;71.70;100301.16;4944295;29;20033;-57
2021/12/09 02:29:55;;;;;;;10.52;6.40;;;;;;;-6.56;71.86;100298.91;4946256;29;20039;-57
2021/12/09 02:32:42;;;;;;;8.38;5.88;;;;;;;-6.91;71.68;100290.19;4960959;29;20038;-57
2021/12/09 02:35:28;;;;;;;12.30;6.50;;;;;;;-6.62;73.37;100308.63;4952858;29;20027;-57
2021/12/09 02:38:14;;;;;;;11.82;6.22;;;;;;;-6.62;71.31;100312.00;4961081;29;20042;-57
2021/12/09 02:41:02;;;;;;;11.23;6.55;;;;;;;-6.65;72.03;100309.31;4957412;28;20395;-57
2021/12/09 02:43:56;;;;;;;10.68;6.13;;;;;;;-6.58;71.90;100303.00;4954693;29;20099;-56
2021/12/09 02:46:41;;;;;;;11.77;7.00;;;;;;;-6.76;72.39;100302.78;4958523;29;20054;-57
2021/12/09 02:49:29;;;;;;;10.95;6.68;;;;;;;-6.71;72.20;100300.53;4961501;29;20027;-56
2021/12/09 02:52:15;;;;;;;10.43;6.32;;;;;;;-6.79;72.39;100302.63;4957580;29;20344;-57
2021/12/09 02:55:03;;;;;;;13.77;7.50;;;;;;;-7.03;71.93;100290.31;4961056;29;20047;-58
2021/12/09 02:57:53;;;;;;;10.45;6.40;;;;;;;-6.88;72.03;100313.03;4962107;28;20054;-58
2021/12/09 03:00:56;;;;;;;13.77;7.35;;;;;;;-6.94;72.50;100310.13;4962301;29;20325;-57
2021/12/09 03:03:54;;;;;;;11.70;6.80;;;;;;;-6.79;73.10;100295.06;4963160;29;20043;-57
2021/12/09 03:06:42;;;;;;;12.90;7.40;;;;;;;-6.80;72.42;100329.47;4961277;29;20352;-57
2021/12/09 03:09:28;;;;;;;9.68;6.93;;;;;;;-6.85;72.76;100327.44;4955840;29;20043;-57
2021/12/09 03:12:18;;;;;;;12.57;7.28;;;;;;;-6.80;71.74;100353.75;4954414;29;20046;-57
2021/12/09 03:15:05;;;;;;;12.75;7.43;;;;;;;-6.77;71.85;100318.66;4961836;29;20340;-57
2021/12/09 03:17:51;;;;;;;13.98;7.95;;;;;;;-6.66;72.16;100334.41;4960523;29;20027;-59
2021/12/09 03:20:37;;;;;;;10.60;6.63;;;;;;;-6.63;71.19;100340.47;4963453;29;20035;-57
2021/12/09 03:23:25;;;;;;;14.30;7.50;;;;;;;-6.64;73.06;100342.91;4958653;29;20031;-58
2021/12/09 03:26:12;;;;;;;14.10;7.47;;;;;;;-6.60;72.82;100352.41;4962611;29;20039;-57
2021/12/09 03:29:01;;;;;;;12.20;7.10;;;;;;;-6.60;71.95;100353.28;4962343;29;20028;-57
2021/12/09 03:31:50;;;;;;;12.30;7.40;;;;;;;-7.09;71.41;100277.41;4945548;29;20024;-57
2021/12/09 03:34:39;;;;;;;12.70;7.55;;;;;;;-6.77;72.32;100339.72;4946393;29;20069;-58
2021/12/09 03:37:27;;;;;;;14.35;7.30;;;;;;;-6.88;72.22;100328.13;4946802;29;20031;-58
2021/12/09 03:40:14;;;;;;;16.08;7.82;;;;;;;-6.80;72.22;100342.03;4947082;29;20042;-58
2021/12/09 03:43:00;;;;;;;12.50;7.57;;;;;;;-6.75;72.28;100352.38;4958864;29;20032;-58
2021/12/09 03:45:48;;;;;;;12.75;7.13;;;;;;;-6.79;72.60;100371.47;4949545;29;20405;-58
2021/12/09 03:48:35;;;;;;;13.50;7.72;;;;;;;-6.68;72.64;100354.47;4956047;29;20063;-57
2021/12/09 03:51:21;;;;;;;13.35;7.75;;;;;;;-6.74;71.49;100353.25;4947393;29;20091;-59
2021/12/09 03:54:09;;;;;;;11.20;7.45;;;;;;;-6.77;72.43;100352.28;4959500;29;20039;-57
2021/12/09 03:56:55;;;;;;;15.45;7.40;;;;;;;-6.60;72.41;100359.94;4959352;29;20039;-57
2021/12/09 03:59:42;;;;;;;15.95;8.10;;;;;;;-6.79;72.63;100368.09;4962639;28;20090;-58
2021/12/09 04:02:28;;;;;;;13.27;7.35;;;;;;;-6.66;72.65;100369.69;4960251;29;20031;-57
2021/12/09 04:05:14;;;;;;;11.75;7.47;;;;;;;-6.70;71.63;100370.28;4955335;29;20039;-57
2021/12/09 04:08:00;;;;;;;12.63;7.68;;;;;;;-6.79;73.01;100363.91;4950999;29;20253;-57
2021/12/09 04:10:47;;;;;;;13.93;7.75;;;;;;;-6.80;71.93;100364.72;4960591;29;20034;-58
2021/12/09 04:13:34;;;;;;;15.13;8.63;;;;;;;-6.69;71.46;100369.50;4952004;29;20059;-57
2021/12/09 04:16:21;;;;;;;13.18;7.88;;;;;;;-6.71;71.46;100355.94;4954979;29;20034;-59
2021/12/09 04:19:08;;;;;;;11.25;7.35;;;;;;;-6.73;72.04;100350.81;4959359;29;20106;-58
2021/12/09 04:21:54;;;;;;;11.75;6.93;;;;;;;-6.66;71.52;100352.03;4960864;29;20232;-58
2021/12/09 04:24:41;;;;;;;10.77;7.05;;;;;;;-6.72;71.06;100369.31;4950713;29;20069;-58
2021/12/09 04:27:27;;;;;;;13.25;7.38;;;;;;;-6.81;71.69;100365.47;4951712;29;20320;-58
2021/12/09 04:30:14;;;;;;;12.13;7.75;;;;;;;-6.74;72.52;100364.19;4961264;29;20050;-58
2021/12/09 04:33:00;;;;;;;14.18;7.40;;;;;;;-6.81;71.59;100367.09;4956881;29;20027;-58
2021/12/09 04:35:46;;;;;;;13.23;6.88;;;;;;;-6.87;72.44;100364.25;4952027;29;20035;-59
2021/12/09 04:38:32;;;;;;;11.77;6.47;;;;;;;-7.03;72.50;100345.69;4960750;28;20217;-58
2021/12/09 04:41:19;;;;;;;11.45;6.85;;;;;;;-6.84;72.30;100361.91;4960379;29;20054;-58
2021/12/09 04:44:05;;;;;;;11.20;6.78;;;;;;;-7.12;72.01;100371.19;4960164;29;20224;-58
2021/12/09 04:46:51;;;;;;;13.55;7.50;;;;;;;-6.89;73.28;100366.66;4961013;28;20237;-58
2021/12/09 04:49:37;;;;;;;11.75;7.43;;;;;;;-6.82;72.50;100363.72;4960354;29;20055;-57
2021/12/09 04:52:24;;;;;;;11.85;6.57;;;;;;;-6.93;71.87;100359.72;4958629;29;20329;-59
2021/12/09 04:55:10;;;;;;;12.00;6.43;;;;;;;-6.98;72.27;100368.66;4960196;29;20062;-58
2021/12/09 04:57:56;;;;;;;11.48;6.82;;;;;;;-7.05;72.28;100369.03;4944647;29;20071;-57
2021/12/09 05:00:42;;;;;;;10.90;6.55;;;;;;;-6.87;73.72;100374.31;4961697;29;20023;-62
2021/12/09 05:03:28;;;;;;;14.00;6.70;;;;;;;-6.85;72.37;100377.81;4960497;29;20063;-60
2021/12/09 05:06:15;;;;;;;10.48;6.70;;;;;;;-7.22;73.23;100311.03;4957329;28;20051;-57
2021/12/09 05:09:09;;;;;;;11.13;6.60;;;;;;;-6.69;73.61;100377.06;4960162;29;20068;-59
2021/12/09 05:11:55;;;;;;;12.13;6.75;;;;;;;-6.45;72.74;100378.47;4941891;29;20078;-57
2021/12/09 05:14:41;;;;;;;11.20;6.30;;;;;;;-6.55;71.88;100372.84;4959747;29;20074;-57
2021/12/09 05:17:27;;;;;;;11.00;6.95;;;;;;;-6.75;73.05;100380.09;4956620;29;20035;-58
2021/12/09 05:20:12;;;;;;;12.90;7.18;;;;;;;-6.63;73.29;100365.66;4945805;29;20138;-58
2021/12/09 05:22:58;;;;;;;10.38;6.40;;;;;;;-6.59;72.85;100370.13;4957646;29;20077;-58
2021/12/09 05:25:45;;;;;;;11.38;6.28;;;;;;;-6.68;72.12;100373.72;4956200;29;20157;-57
2021/12/09 05:28:34;;;;;;;12.57;6.97;;;;;;;-6.53;72.48;100382.19;4945201;29;20095;-57
2021/12/09 05:34:26;;;;;;;10.52;6.03;;;;;;;-6.70;73.00;100387.91;4955516;29;20309;-57
2021/12/09 05:37:17;;;;;;;11.52;6.60;;;;;;;-6.71;72.73;100409.72;4959021;29;20035;-57
2021/12/09 05:40:04;;;;;;;11.15;6.40;;;;;;;-6.74;71.94;100391.00;4957889;29;20041;-57
2021/12/09 05:42:50;;;;;;;12.85;6.47;;;;;;;-6.85;72.47;100392.91;4958931;29;20363;-59
2021/12/09 05:45:36;;;;;;;10.95;6.30;;;;;;;-6.86;72.79;100381.09;4958522;29;20320;-58
2021/12/09 05:48:22;;;;;;;12.07;6.30;;;;;;;-6.97;72.46;100395.53;4948118;29;20189;-58
2021/12/09 05:51:08;;;;;;;11.13;6.18;;;;;;;-6.89;72.89;100396.03;4955270;29;20043;-58
2021/12/09 05:53:55;;;;;;;9.35;6.28;;;;;;;-6.72;73.13;100389.47;4958158;29;20098;-59
2021/12/09 05:56:41;;;;;;;8.95;6.07;;;;;;;-6.63;72.42;100400.94;4959911;29;20042;-59
2021/12/09 05:59:27;;;;;;;11.35;6.32;;;;;;;-6.68;72.68;100389.75;4959000;29;20023;-58
2021/12/09 06:02:16;;;;;;;8.88;6.15;;;;;;;-6.85;72.23;100360.19;4955905;29;20351;-58
2021/12/09 06:05:04;;;;;;;9.90;5.65;;;;;;;-6.52;73.40;100416.69;4958337;29;20042;-57
2021/12/09 06:07:50;;;;;;;9.55;5.57;;;;;;;-6.68;72.56;100402.31;4959592;29;20228;-58
2021/12/09 06:10:37;;;;;;;9.95;6.28;;;;;;;-6.60;72.44;100391.06;4956295;29;20034;-57
2021/12/09 06:13:25;;;;;;;8.65;6.10;;;;;;;-6.49;72.56;100411.81;4960911;28;20094;-57
2021/12/09 06:16:11;;;;;;;10.35;6.07;;;;;;;-6.28;72.48;100408.84;4959239;29;20067;-56
2021/12/09 06:18:57;;;;;;;8.90;5.50;;;;;;;-6.31;72.58;100416.22;4941677;29;20055;-58
2021/12/09 06:21:43;;;;;;;10.40;6.10;;;;;;;-6.39;72.42;100425.84;4960190;28;20043;-56
2021/12/09 06:24:29;;;;;;;9.57;6.03;;;;;;;-6.39;71.90;100430.00;4957772;29;20522;-57
2021/12/09 06:27:15;;;;;;;8.18;5.63;;;;;;;-6.31;71.47;100442.28;4960145;29;20335;-57
2021/12/09 06:30:01;;;;;;;12.77;6.13;;;;;;;-6.25;71.75;100440.09;4959459;29;20024;-57
2021/12/09 06:32:49;;;;;;;9.23;6.38;;;;;;;-6.11;71.43;100445.97;4959908;29;20038;-57
2021/12/09 06:35:35;;;;;;;12.05;7.03;;;;;;;-6.08;71.83;100450.31;4955025;29;20042;-59
2021/12/09 06:38:22;;;;;;;9.50;6.18;;;;;;;-6.14;71.02;100448.31;4957660;29;20032;-57
2021/12/09 06:41:08;;;;;;;9.77;6.13;;;;;;;-6.16;72.23;100444.81;4944941;29;20347;-57
2021/12/09 06:43:54;;;;;;;9.98;6.43;;;;;;;-6.16;72.94;100433.88;4956534;29;20157;-58
2021/12/09 06:46:40;;;;;;;8.85;5.82;;;;;;;-6.10;71.57;100435.09;4945441;29;20040;-58
2021/12/09 06:49:26;;;;;;;11.85;6.15;;;;;;;-6.05;71.27;100445.44;4959616;29;20103;-58
2021/12/09 06:52:14;;;;;;;9.73;5.50;;;;;;;-6.39;71.10;100440.94;4958238;29;20083;-59
2021/12/09 06:55:00;;;;;;;9.93;6.07;;;;;;;-6.42;70.86;100449.19;4959613;29;20035;-58
2021/12/09 06:57:47;;;;;;;10.25;6.15;;;;;;;-6.27;72.42;100446.72;4954723;29;20038;-59
2021/12/09 07:00:34;;;;;;;8.82;5.85;;;;;;;-6.34;71.86;100447.16;4971792;28;20320;-59
2021/12/09 07:03:21;;;;;;;9.75;6.10;;;;;;;-6.08;71.72;100466.28;4959795;29;20027;-60
2021/12/09 07:06:11;;;;;;;7.50;5.40;;;;;;;-5.96;71.75;100457.66;4955625;29;20035;-58
2021/12/09 07:09:00;;;;;;;9.93;5.80;;;;;;;-5.84;71.29;100468.47;4959116;29;20035;-58
2021/12/09 07:11:50;;;;;;;8.38;5.88;;;;;;;-5.92;72.16;100465.47;4958145;29;20078;-59
2021/12/09 07:14:36;;;;;;;8.68;6.10;;;;;;;-5.78;71.16;100471.31;4946884;29;20043;-58
2021/12/09 07:17:23;;;;;;;9.38;6.43;;;;;;;-6.03;70.48;100455.59;4952276;29;20102;-60
2021/12/09 07:20:12;;;;;;;10.13;6.78;;;;;;;-5.93;71.67;100467.94;4958329;29;20037;-59
2021/12/09 07:22:58;;;;;;;11.90;6.50;;;;;;;-5.88;70.27;100476.63;4950857;29;20103;-58
2021/12/09 07:25:44;;;;;;;8.98;6.43;;;;;;;-5.96;69.47;100478.69;4955027;29;20023;-57
2021/12/09 07:28:30;;;;;;;9.50;6.38;;;;;;;-6.19;68.88;100477.41;4958163;29;20268;-57
2021/12/09 07:31:16;;;;;;;9.80;6.50;;;;;;;-6.22;70.48;100477.22;4957671;29;20468;-57
2021/12/09 07:34:02;;;;;;;10.48;6.88;;;;;;;-6.30;68.95;100485.97;4954862;28;20275;-58
2021/12/09 07:36:49;;;;;;;8.10;6.03;;;;;;;-6.29;70.06;100485.22;4959608;29;20028;-57
2021/12/09 07:39:37;;;;;;;10.63;6.07;;;;;;;-6.30;69.03;100484.34;4961259;29;20038;-57
2021/12/09 07:42:23;;;;;;;10.02;6.78;;;;;;;-6.25;69.31;100487.13;4961213;29;20056;-60
2021/12/09 07:45:10;;;;;;;10.98;6.43;;;;;;;-6.36;69.44;100490.66;4957234;28;20027;-58
2021/12/09 07:47:57;;;;;;;10.10;6.05;;;;;;;-6.44;68.89;100485.16;4962847;29;20509;-59
2021/12/09 07:50:43;;;;;;;8.63;6.35;;;;;;;-6.47;70.16;100493.44;4956568;29;20027;-59
2021/12/09 07:53:29;;;;;;;9.43;6.50;;;;;;;-6.24;69.34;100491.41;4953982;29;20027;-59
2021/12/09 07:56:15;;;;;;;11.07;6.50;;;;;;;-6.00;68.04;100499.53;4962768;29;20040;-59
2021/12/09 07:59:01;;;;;;;10.38;6.13;;;;;;;-6.02;67.69;100498.56;4951384;28;20046;-59
2021/12/09 08:01:47;;;;;;;10.00;6.63;;;;;;;-5.95;68.84;100499.75;4951788;29;20039;-59
2021/12/09 08:04:33;;;;;;;8.32;6.18;;;;;;;-5.90;67.38;100498.34;4952057;28;20023;-57
2021/12/09 08:07:19;;;;;;;11.93;7.07;;;;;;;-5.77;67.67;100505.88;4961515;29;20086;-58
2021/12/09 08:10:06;;;;;;;9.57;5.97;;;;;;;-5.73;68.05;100501.84;4949009;28;20102;-58
2021/12/09 08:12:52;;;;;;;11.65;6.75;;;;;;;-5.60;66.01;100503.41;4949504;28;20073;-58
2021/12/09 08:15:45;;;;;;;10.30;6.50;;;;;;;-5.41;67.19;100506.19;4946411;29;20031;-59
2021/12/09 08:18:43;;;;;;;11.43;6.68;;;;;;;-5.44;66.42;100490.88;4957746;29;20023;-58
2021/12/09 08:21:29;;;;;;;9.68;6.43;;;;;;;-5.35;67.53;100507.34;4949598;29;20030;-58
2021/12/09 08:24:14;;;;;;;11.75;6.70;;;;;;;-5.71;66.82;100510.38;4960045;29;20039;-59
2021/12/09 08:27:00;;;;;;;12.63;6.57;;;;;;;-5.82;67.61;100502.19;4960638;29;20098;-58
2021/12/09 08:29:46;;;;;;;11.07;6.97;;;;;;;-5.85;66.85;100516.28;4960476;29;20028;-58
2021/12/09 08:32:33;;;;;;;10.25;6.53;;;;;;;-5.76;66.88;100517.69;4962563;29;20015;-58
2021/12/09 08:35:20;;;;;;;10.80;6.88;;;;;;;-5.74;67.73;100513.59;4958595;29;20035;-59
2021/12/09 08:38:07;;;;;;;10.13;6.57;;;;;;;-5.78;66.23;100496.53;4950644;29;20078;-59
2021/12/09 08:40:54;;;;;;;9.13;6.28;;;;;;;-6.01;65.80;100452.41;4946837;29;20102;-59
2021/12/09 08:43:40;;;;;;;10.07;6.55;;;;;;;-5.44;64.94;100521.19;4945649;29;20039;-59
2021/12/09 08:46:26;;;;;;;13.32;8.25;;;;;;;-5.38;63.64;100524.03;4948697;28;20308;-59
2021/12/09 08:49:12;;;;;;;10.63;6.80;;;;;;;-5.36;64.20;100514.03;4951930;29;20039;-58
2021/12/09 08:51:58;;;;;;;10.40;6.60;;;;;;;-5.20;64.87;100523.34;4959134;28;20313;-59
2021/12/09 08:54:44;;;;;;;8.98;6.28;;;;;;;-5.25;64.02;100523.06;4947482;28;20122;-59
2021/12/09 08:57:32;;;;;;;9.70;6.20;;;;;;;-5.39;63.95;100526.47;4961615;28;20031;-59
2021/12/09 09:00:18;;;;;;;8.73;5.72;;;;;;;-5.30;64.16;100518.53;4955415;29;20038;-59
2021/12/09 09:03:05;;;;;;;11.00;6.68;;;;;;;-5.11;62.92;100518.78;4960754;28;20054;-59
2021/12/09 09:05:51;;;;;;;10.35;6.10;;;;;;;-4.97;62.59;100522.06;4962209;29;20035;-59
2021/12/09 09:08:37;;;;;;;10.05;6.57;;;;;;;-4.72;61.47;100524.28;4955527;29;20122;-58
2021/12/09 09:11:24;;;;;;;12.07;6.53;;;;;;;-4.61;62.24;100534.94;4953467;28;20324;-59
2021/12/09 09:14:10;;;;;;;9.52;6.75;;;;;;;-4.83;60.98;100538.00;4959553;28;20039;-59
2021/12/09 09:16:56;;;;;;;10.35;6.93;;;;;;;-5.11;62.43;100521.31;4958151;28;20082;-59
2021/12/09 09:19:42;;;;;;;10.43;6.28;;;;;;;-5.13;62.27;100530.47;4957868;28;20236;-58
2021/12/09 09:22:28;;;;;;;10.88;6.40;;;;;;;-5.28;64.82;100519.50;4955324;28;20034;-61
2021/12/09 09:25:19;;;;;;;10.93;6.72;;;;;;;-5.60;64.79;100516.03;4959939;28;20106;-58
2021/12/09 09:28:07;;;;;;;11.18;7.60;;;;;;;-5.80;62.81;100513.25;4961896;28;20189;-60
2021/12/09 09:30:53;;;;;;;11.52;6.95;;;;;;;-5.81;64.59;100528.31;4960163;29;20054;-60
2021/12/09 09:33:39;;;;;;;11.02;7.35;;;;;;;-5.70;64.57;100514.66;4952423;29;20330;-59
2021/12/09 09:36:26;;;;;;;11.20;6.43;;;;;;;-5.81;64.67;100524.13;4945999;29;20089;-60
2021/12/09 09:39:18;;;;;;;13.38;7.55;;;;;;;-5.69;65.19;100513.00;4959403;29;20040;-59
2021/12/09 09:42:30;;;;;;;;;;;;;;;-5.71;65.92;100517.97;4948275;28;20367;-59
2021/12/09 09:45:14;;;;;;;10.77;6.43;;;;;;;-6.23;64.48;100459.50;4951210;28;20110;-60
2021/12/09 09:48:01;;;;;;;10.32;7.13;;;;;;;-5.77;65.41;100510.91;4960741;29;20039;-59
2021/12/09 09:50:47;;;;;;;10.48;6.45;;;;;;;-5.82;65.00;100509.75;4961284;28;20375;-59
2021/12/09 09:53:34;;;;;;;8.93;6.43;;;;;;;-5.75;65.28;100539.59;4960949;29;20061;-59
2021/12/09 09:56:23;;;;;;;12.05;7.28;;;;;;;-5.60;65.18;100528.66;4961188;28;20227;-58
2021/12/09 09:59:11;;;;;;;10.48;6.20;;;;;;;-5.77;64.82;100518.47;4961018;29;20042;-59
2021/12/09 10:01:58;;;;;;;10.85;6.22;;;;;;;-5.72;65.34;100512.03;4959460;29;20217;-58
2021/12/09 10:04:48;;;;;;;10.40;5.50;;;;;;;-5.95;64.79;100513.22;4958118;29;20070;-59
2021/12/09 10:07:35;;;;;;;13.32;6.55;;;;;;;-5.88;64.61;100511.94;4957610;29;20110;-60
2021/12/09 10:10:23;;;;;;;10.15;6.55;;;;;;;-5.99;64.19;100518.03;4959355;29;20200;-58
2021/12/09 10:13:11;;;;;;;10.77;6.57;;;;;;;-6.00;65.43;100516.28;4952882;29;20070;-58
2021/12/09 10:15:57;;;;;;;10.07;6.57;;;;;;;-5.90;65.47;100513.47;4950726;29;20031;-59
2021/12/09 10:18:46;;;;;;;12.45;7.03;;;;;;;-6.14;64.64;100452.47;4960189;29;20035;-59
2021/12/09 10:21:32;;;;;;;11.57;6.72;;;;;;;-5.87;64.88;100483.44;4960646;29;20232;-58
2021/12/09 10:24:18;;;;;;;11.57;7.00;;;;;;;-5.90;64.13;100491.69;4959334;29;20027;-59
2021/12/09 10:27:13;;;;;;;10.82;6.45;;;;;;;-5.97;64.24;100512.28;4960625;29;20049;-58
2021/12/09 10:30:08;;;;;;;9.70;6.00;;;;;;;-5.96;65.24;100508.94;4960063;29;20403;-58
2021/12/09 10:33:02;;;;;;;11.88;6.90;;;;;;;-6.46;64.82;100424.59;4960003;29;20090;-59
2021/12/09 10:35:48;;;;;;;11.20;7.07;;;;;;;-5.90;64.08;100498.34;4944796;29;20201;-58
2021/12/09 10:38:34;;;;;;;9.98;6.20;;;;;;;-5.93;65.24;100508.28;4944274;29;20023;-59
2021/12/09 10:41:33;;;;;;;10.95;6.47;;;;;;;-5.77;64.43;100505.88;4961131;29;20058;-59
2021/12/09 10:44:43;;;;;;;10.45;6.20;;;;;;;-5.78;63.62;100518.38;4957750;29;20023;-59
2021/12/09 10:56:26;;;;;;;8.63;5.85;;;;;;;-5.92;64.44;100546.19;4957501;29;20205;-58
2021/12/09 10:59:12;;;;;;;10.95;6.88;;;;;;;-5.87;64.37;100561.59;4952967;29;20308;-58
2021/12/09 11:02:05;;;;;;;10.70;5.70;;;;;;;-5.78;65.53;100562.13;4958764;29;20035;-59
2021/12/09 11:05:05;;;;;;;10.90;5.97;;;;;;;-6.20;65.37;100560.50;4960353;29;20107;-58
2021/12/09 11:07:51;;;;;;;9.65;6.03;;;;;;;-6.02;64.98;100560.72;4959858;28;20271;-58
2021/12/09 11:10:45;;;;;;;9.45;6.13;;;;;;;-6.35;66.65;100552.91;4963827;29;20027;-58
2021/12/09 11:13:38;;;;;;;10.23;5.63;;;;;;;-6.54;65.84;100497.97;4948459;29;20028;-57
2021/12/09 11:16:28;;;;;;;10.98;6.35;;;;;;;-6.44;66.74;100490.19;4949291;29;20275;-58
2021/12/09 11:22:18;;;;;;;8.80;5.45;;;;;;;-6.39;65.50;100540.88;4951046;29;20054;-59
2021/12/09 11:25:29;;;;;;;9.02;6.10;;;;;;;-6.18;65.91;100567.38;4952788;28;20436;-59
2021/12/09 11:28:15;;;;;;;10.32;6.93;;;;;;;-6.09;66.36;100557.81;4960988;29;20106;-58
2021/12/09 11:31:06;;;;;;;9.02;6.10;;;;;;;-6.19;66.83;100578.22;4954760;29;20086;-58
2021/12/09 11:34:09;;;;;;;11.93;6.63;;;;;;;-6.19;66.69;100559.72;4954682;29;20030;-59
2021/12/09 11:37:02;;;;;;;11.02;6.32;;;;;;;-6.44;68.04;100496.13;4967561;28;20302;-58
2021/12/09 11:39:51;;;;;;;8.73;6.28;;;;;;;-5.91;66.46;100572.28;4957404;29;20269;-58
2021/12/09 11:43:02;;;;;;;11.30;6.50;;;;;;;-5.84;67.73;100569.34;4962872;29;20043;-58
2021/12/09 11:45:48;;;;;;;11.07;6.82;;;;;;;-6.60;67.31;100511.06;4964250;28;20248;-58
2021/12/09 11:48:34;;;;;;;9.50;6.40;;;;;;;-6.03;67.45;100561.50;4946824;29;20581;-58
2021/12/09 11:51:21;;;;;;;13.93;7.15;;;;;;;-5.83;68.48;100576.09;4960209;29;20035;-58
2021/12/09 11:54:09;;;;;;;10.93;6.07;;;;;;;-5.74;67.26;100581.72;4949415;29;20039;-60
2021/12/09 11:57:09;;;;;;;11.05;6.85;;;;;;;-5.85;65.93;100594.47;4961390;29;20273;-61
2021/12/09 12:14:17;;;;;;;13.65;7.10;;;;;;;-6.07;68.33;100578.97;4917074;29;20032;-58
2021/12/09 12:23:24;;;;;;;9.85;6.55;;;;;;;-5.93;67.95;100599.03;4931053;29;20086;-58
2021/12/09 12:29:54;;;;;;;9.85;6.05;;;;;;;-6.32;67.99;100574.09;4901092;29;20253;-57
2021/12/09 12:33:47;;;;;;;9.68;6.28;;;;;;;-6.05;68.41;100608.44;4918394;29;20110;-59
2021/12/09 12:36:22;;;;;;;13.00;7.35;;;;;;;-6.02;68.54;100616.19;4929235;29;20102;-58
2021/12/09 12:39:18;;;;;;;11.15;6.40;;;;;;;-6.23;67.02;100614.09;4911145;29;20128;-58
2021/12/09 12:42:14;;;;;;;11.88;6.47;;;;;;;-6.68;68.77;100547.50;4908470;29;20450;-58
2021/12/09 12:45:32;;;;;;;13.45;7.22;;;;;;;-6.28;67.19;100603.75;4948108;29;20039;-59
2021/12/09 12:48:47;;;;;;;12.50;6.65;;;;;;;-6.13;67.44;100633.19;4947856;29;20086;-58
2021/12/09 12:51:50;;;;;;;10.52;6.63;;;;;;;-6.59;67.15;100568.25;4960058;29;20379;-58
2021/12/09 12:57:34;;;;;;;10.45;6.40;;;;;;;-6.57;66.88;100580.94;4955769;29;20039;-58
2021/12/09 13:00:30;;;;;;;9.57;6.35;;;;;;;-6.16;66.43;100663.25;4962493;29;20034;-59
2021/12/09 13:03:35;;;;;;;10.35;6.13;;;;;;;-6.42;67.70;100632.25;4962303;29;20031;-58
2021/12/09 13:06:50;;;;;;;12.10;6.78;;;;;;;-6.29;68.43;100667.53;4961066;29;20035;-58
2021/12/09 13:09:39;;;;;;;9.63;6.22;;;;;;;-6.45;68.45;100667.34;4946104;28;20075;-57
2021/12/09 13:12:44;;;;;;;12.48;6.10;;;;;;;-6.54;67.69;100694.47;4946067;29;20375;-59
2021/12/09 13:15:39;;;;;;;11.82;6.05;;;;;;;-6.45;66.78;100690.03;4945578;29;20034;-58
2021/12/09 13:21:55;;;;;;;10.82;6.30;;;;;;;-6.57;68.49;100697.66;4954043;29;20086;-58
2021/12/09 13:25:02;;;;;;;11.10;6.72;;;;;;;-6.58;67.54;100700.97;4960439;29;20027;-57
2021/12/09 13:28:04;;;;;;;9.10;5.72;;;;;;;-6.71;68.26;100699.31;4959042;29;20332;-58
2021/12/09 13:31:07;;;;;;;12.52;6.78;;;;;;;-6.75;67.19;100712.47;4961898;29;20039;-57
2021/12/09 13:34:06;;;;;;;12.25;6.45;;;;;;;-6.76;67.85;100716.63;4951312;29;20223;-59
2021/12/09 13:37:29;;;;;;;10.15;6.43;;;;;;;-6.81;67.62;100727.19;4944149;29;20030;-58
2021/12/09 13:40:27;;;;;;;11.40;6.22;;;;;;;-6.70;69.13;100725.38;4960743;29;20051;-57
2021/12/09 13:49:55;;;;;;;8.15;5.65;;;;;;;-6.87;68.49;100742.75;4959406;29;20082;-58
2021/12/09 13:55:31;;;;;;;9.85;6.75;;;;;;;-6.99;67.06;100736.94;4960752;29;20412;-57